Time;durP1;ratioP1;P1;durP2;ratioP2;P2;SDS_P1;SDS_P2;PMS_P1;PMS_P2;Temp;Humidity;BMP_temperature;BMP_pressure;BME280_temperature;BME280_humidity;BME280_pressure;Samples;Min_cycle;Max_cycle;Signal;HPM_P1;HPM_P2
2023/04/22 00:02:22;;;;;;;1.60;0.30;;;;;;;;;;4905261;29;20421;-60
2023/04/22 00:04:51;;;;;;;2.10;0.20;;;;;;;;;;4903470;29;20519;-60
2023/04/22 00:07:20;;;;;;;0.10;0.10;;;;;;;;;;4905312;29;20052;-61
2023/04/22 00:09:49;;;;;;;0.15;0.15;;;;;;;;;;4907088;29;20414;-60
2023/04/22 00:12:17;;;;;;;0.22;0.17;;;;;;;;;;4905843;29;20516;-60
2023/04/22 00:14:45;;;;;;;0.80;0.40;;;;;;;;;;4907570;29;20135;-59
2023/04/22 00:17:14;;;;;;;0.38;0.38;;;;;;;;;;4903424;29;20703;-60
2023/04/22 00:19:42;;;;;;;1.40;0.30;;;;;;;;;;4904507;29;20056;-60
2023/04/22 00:22:12;;;;;;;2.45;0.30;;;;;;;;;;4906363;29;20063;-60
2023/04/22 00:24:40;;;;;;;0.10;0.10;;;;;;;;;;4907200;29;20062;-60
2023/04/22 00:27:09;;;;;;;0.47;0.25;;;;;;;;;;4904569;29;20056;-60
2023/04/22 00:29:38;;;;;;;0.20;0.20;;;;;;;;;;4903501;29;20616;-60
2023/04/22 00:32:07;;;;;;;0.10;0.10;;;;;;;;;;4905032;29;20106;-60
2023/04/22 00:34:35;;;;;;;0.25;0.20;;;;;;;;;;4906056;29;20060;-60
2023/04/22 00:37:04;;;;;;;0.30;0.30;;;;;;;;;;4903402;29;20470;-60
2023/04/22 00:39:34;;;;;;;0.50;0.30;;;;;;;;;;4905093;29;20508;-58
2023/04/22 00:42:03;;;;;;;1.52;0.30;;;;;;;;;;4904078;29;20199;-60
2023/04/22 00:44:31;;;;;;;0.40;0.25;;;;;;;;;;4906147;29;20044;-60
2023/04/22 00:47:00;;;;;;;0.50;0.35;;;;;;;;;;4902475;29;20056;-60
2023/04/22 00:49:28;;;;;;;1.27;0.40;;;;;;;;;;4907776;29;20048;-61
2023/04/22 00:51:57;;;;;;;0.30;0.30;;;;;;;;;;4902503;29;20052;-60
2023/04/22 00:54:25;;;;;;;0.82;0.30;;;;;;;;;;4901074;29;20058;-60
2023/04/22 00:56:56;;;;;;;0.25;0.25;;;;;;;;;;4900686;29;20151;-60
2023/04/22 00:59:26;;;;;;;1.27;0.40;;;;;;;;;;4904607;29;20139;-60
2023/04/22 01:01:54;;;;;;;1.00;0.20;;;;;;;;;;4918365;23;20481;-62
2023/04/22 01:04:23;;;;;;;0.20;0.20;;;;;;;;;;4936050;29;20446;-62
2023/04/22 01:06:52;;;;;;;0.40;0.40;;;;;;;;;;4936872;29;20083;-62
2023/04/22 01:09:20;;;;;;;0.38;0.38;;;;;;;;;;4937332;29;20060;-61
2023/04/22 01:11:49;;;;;;;0.30;0.30;;;;;;;;;;4936904;29;20062;-59
2023/04/22 01:14:18;;;;;;;0.73;0.52;;;;;;;;;;4936769;29;20134;-59
2023/04/22 01:16:47;;;;;;;0.20;0.17;;;;;;;;;;4937293;29;20134;-59
2023/04/22 01:19:16;;;;;;;0.20;0.20;;;;;;;;;;4936660;29;20123;-58
2023/04/22 01:21:45;;;;;;;0.43;0.43;;;;;;;;;;4936384;29;20062;-60
2023/04/22 01:24:14;;;;;;;0.10;0.10;;;;;;;;;;4937295;29;20135;-62
2023/04/22 01:26:43;;;;;;;0.30;0.20;;;;;;;;;;4936773;29;20138;-58
2023/04/22 01:29:11;;;;;;;0.17;0.17;;;;;;;;;;4936268;29;20054;-60
2023/04/22 01:31:40;;;;;;;1.98;0.60;;;;;;;;;;4936495;29;20484;-62
2023/04/22 01:34:08;;;;;;;0.90;0.30;;;;;;;;;;4937318;29;20051;-67
2023/04/22 01:36:36;;;;;;;0.10;0.10;;;;;;;;;;4932584;29;20047;-61
2023/04/22 01:39:06;;;;;;;0.35;0.35;;;;;;;;;;4922523;29;20055;-60
2023/04/22 01:41:36;;;;;;;0.32;0.20;;;;;;;;;;4924586;29;20060;-58
2023/04/22 01:44:04;;;;;;;0.10;0.10;;;;;;;;;;4925660;29;20046;-58
2023/04/22 01:46:33;;;;;;;0.40;0.30;;;;;;;;;;4920946;29;20058;-62
2023/04/22 01:49:02;;;;;;;0.40;0.40;;;;;;;;;;4924408;29;20130;-58
2023/04/22 01:51:30;;;;;;;6.00;0.50;;;;;;;;;;4923014;29;20040;-60
2023/04/22 01:53:58;;;;;;;0.32;0.28;;;;;;;;;;4926206;29;20055;-58
2023/04/22 01:56:27;;;;;;;0.95;0.22;;;;;;;;;;4923654;28;20397;-60
2023/04/22 01:58:56;;;;;;;0.20;0.20;;;;;;;;;;4922866;29;20056;-65
2023/04/22 02:01:25;;;;;;;0.30;0.30;;;;;;;;;;4921567;29;20051;-60
2023/04/22 02:03:53;;;;;;;0.55;0.22;;;;;;;;;;4925092;29;20503;-58
2023/04/22 02:06:22;;;;;;;0.22;0.22;;;;;;;;;;4920974;28;20444;-59
2023/04/22 02:08:50;;;;;;;0.40;0.40;;;;;;;;;;4923976;29;20040;-62
2023/04/22 02:11:18;;;;;;;1.00;0.60;;;;;;;;;;4922185;29;20040;-62
2023/04/22 02:13:47;;;;;;;0.93;0.40;;;;;;;;;;4928024;29;20056;-60
2023/04/22 02:16:16;;;;;;;0.38;0.30;;;;;;;;;;4925509;28;20058;-58
2023/04/22 02:18:45;;;;;;;0.40;0.40;;;;;;;;;;4925261;29;20055;-60
2023/04/22 02:21:13;;;;;;;6.38;0.80;;;;;;;;;;4921880;29;20058;-60
2023/04/22 02:23:41;;;;;;;1.52;0.30;;;;;;;;;;4925164;29;20331;-68
2023/04/22 02:26:10;;;;;;;2.33;0.47;;;;;;;;;;4921071;29;20340;-58
2023/04/22 02:28:38;;;;;;;0.20;0.20;;;;;;;;;;4925206;29;20048;-62
2023/04/22 02:31:07;;;;;;;0.20;0.20;;;;;;;;;;4925240;29;20490;-58
2023/04/22 02:33:37;;;;;;;0.40;0.40;;;;;;;;;;4922036;29;20071;-61
2023/04/22 02:36:06;;;;;;;0.50;0.45;;;;;;;;;;4920070;28;20043;-67
2023/04/22 02:38:34;;;;;;;0.43;0.43;;;;;;;;;;4920402;29;20087;-62
2023/04/22 02:41:03;;;;;;;1.65;0.55;;;;;;;;;;4920356;29;20498;-60
2023/04/22 02:43:31;;;;;;;1.65;0.75;;;;;;;;;;4923078;29;20503;-64
2023/04/22 02:45:59;;;;;;;1.27;0.40;;;;;;;;;;4922287;29;20051;-65
2023/04/22 02:48:28;;;;;;;0.75;0.68;;;;;;;;;;4925492;29;20051;-60
2023/04/22 02:50:57;;;;;;;2.22;0.43;;;;;;;;;;4922432;29;20504;-59
2023/04/22 02:53:26;;;;;;;1.17;0.30;;;;;;;;;;4924526;29;20408;-67
2023/04/22 02:55:54;;;;;;;1.70;0.50;;;;;;;;;;4921939;28;20043;-63
2023/04/22 02:58:22;;;;;;;2.63;0.40;;;;;;;;;;4927041;29;20052;-62
2023/04/22 03:00:51;;;;;;;1.13;0.50;;;;;;;;;;4923259;29;20055;-59
2023/04/22 03:03:19;;;;;;;0.40;0.40;;;;;;;;;;4922900;29;20052;-68
2023/04/22 03:05:48;;;;;;;0.35;0.30;;;;;;;;;;4923868;28;20051;-58
2023/04/22 03:08:17;;;;;;;0.38;0.30;;;;;;;;;;4920869;29;20051;-67
2023/04/22 03:10:46;;;;;;;0.40;0.30;;;;;;;;;;4927042;29;20409;-64
2023/04/22 03:13:14;;;;;;;1.23;1.10;;;;;;;;;;4919932;29;20048;-60
2023/04/22 03:15:43;;;;;;;0.40;0.32;;;;;;;;;;4923276;28;20058;-65
2023/04/22 03:18:12;;;;;;;1.02;0.73;;;;;;;;;;4919979;29;20039;-58
2023/04/22 03:20:40;;;;;;;1.58;0.60;;;;;;;;;;4925449;29;20142;-66
2023/04/22 03:23:08;;;;;;;0.43;0.40;;;;;;;;;;4920335;29;20051;-59
2023/04/22 03:25:38;;;;;;;1.23;0.38;;;;;;;;;;4921509;28;20048;-59
2023/04/22 03:28:06;;;;;;;5.30;1.35;;;;;;;;;;4923888;29;20071;-59
2023/04/22 03:30:35;;;;;;;0.50;0.40;;;;;;;;;;4919830;29;20052;-64
2023/04/22 03:33:03;;;;;;;2.75;0.68;;;;;;;;;;4922923;29;20044;-59
2023/04/22 03:35:31;;;;;;;1.33;0.50;;;;;;;;;;4921959;28;20048;-58
2023/04/22 03:38:00;;;;;;;0.40;0.40;;;;;;;;;;4922263;29;20555;-66
2023/04/22 03:40:28;;;;;;;0.32;0.30;;;;;;;;;;4920586;29;20052;-59
2023/04/22 03:42:58;;;;;;;1.55;0.43;;;;;;;;;;4924055;29;20058;-64
2023/04/22 03:45:27;;;;;;;1.23;0.57;;;;;;;;;;4926410;28;20082;-59
2023/04/22 03:47:55;;;;;;;1.23;0.50;;;;;;;;;;4921998;29;20398;-59
2023/04/22 03:50:23;;;;;;;0.40;0.28;;;;;;;;;;4921501;29;20536;-66
2023/04/22 03:52:52;;;;;;;1.08;0.43;;;;;;;;;;4919902;29;20060;-58
2023/04/22 03:55:20;;;;;;;1.38;0.32;;;;;;;;;;4924566;28;20044;-60
2023/04/22 03:57:49;;;;;;;0.30;0.30;;;;;;;;;;4924700;29;20090;-59
2023/04/22 04:00:18;;;;;;;0.30;0.30;;;;;;;;;;4920421;29;20044;-58
2023/04/22 04:02:47;;;;;;;0.40;0.40;;;;;;;;;;4922646;29;20052;-58
2023/04/22 04:05:15;;;;;;;5.75;1.05;;;;;;;;;;4923845;28;20059;-62
2023/04/22 04:07:44;;;;;;;2.45;0.75;;;;;;;;;;4920397;29;20047;-61
2023/04/22 04:10:12;;;;;;;1.00;0.75;;;;;;;;;;4927149;29;20139;-58
2023/04/22 04:12:41;;;;;;;2.47;1.42;;;;;;;;;;4926249;29;20052;-58
2023/04/22 04:15:10;;;;;;;0.75;0.75;;;;;;;;;;4925588;29;20481;-58
2023/04/22 04:17:40;;;;;;;2.95;0.70;;;;;;;;;;4925010;29;20371;-59
2023/04/22 04:20:09;;;;;;;0.30;0.30;;;;;;;;;;4929861;29;20104;-66
2023/04/22 04:22:37;;;;;;;0.68;0.35;;;;;;;;;;4924545;29;20062;-57
2023/04/22 04:25:07;;;;;;;0.50;0.50;;;;;;;;;;4926628;29;20043;-58
2023/04/22 04:27:35;;;;;;;0.45;0.45;;;;;;;;;;4927400;28;20140;-59
2023/04/22 04:30:03;;;;;;;0.25;0.25;;;;;;;;;;4924087;29;20052;-59
2023/04/22 04:32:33;;;;;;;0.25;0.25;;;;;;;;;;4921704;29;20066;-59
2023/04/22 04:35:03;;;;;;;1.13;0.50;;;;;;;;;;4927363;29;20123;-58
2023/04/22 04:37:31;;;;;;;0.52;0.38;;;;;;;;;;4925708;28;20055;-64
2023/04/22 04:40:00;;;;;;;0.77;0.77;;;;;;;;;;4924377;29;20489;-57
2023/04/22 04:42:32;;;;;;;0.95;0.40;;;;;;;;;;4927852;29;20146;-60
2023/04/22 04:45:00;;;;;;;0.88;0.40;;;;;;;;;;4924946;29;20494;-63
2023/04/22 04:47:28;;;;;;;0.43;0.30;;;;;;;;;;4923843;28;20076;-57
2023/04/22 04:49:57;;;;;;;1.25;0.40;;;;;;;;;;4923458;29;20051;-65
2023/04/22 04:52:27;;;;;;;1.73;1.05;;;;;;;;;;4925479;29;20055;-58
2023/04/22 04:54:55;;;;;;;2.33;0.35;;;;;;;;;;4925230;29;20062;-58
2023/04/22 04:57:23;;;;;;;1.23;0.70;;;;;;;;;;4926992;28;20884;-57
2023/04/22 04:59:52;;;;;;;0.75;0.60;;;;;;;;;;4922292;29;20691;-58
2023/04/22 05:02:20;;;;;;;1.10;0.50;;;;;;;;;;4922854;29;20056;-65
2023/04/22 05:04:49;;;;;;;0.40;0.40;;;;;;;;;;4923471;29;20477;-57
2023/04/22 05:07:17;;;;;;;0.40;0.40;;;;;;;;;;4926114;28;20501;-59
2023/04/22 05:09:47;;;;;;;0.90;0.38;;;;;;;;;;4923719;29;20142;-58
2023/04/22 05:12:15;;;;;;;0.60;0.43;;;;;;;;;;4926461;29;20083;-58
2023/04/22 05:14:45;;;;;;;0.85;0.57;;;;;;;;;;4928042;29;20519;-60
2023/04/22 05:17:13;;;;;;;0.38;0.15;;;;;;;;;;4924967;28;20058;-60
2023/04/22 05:19:42;;;;;;;1.20;0.70;;;;;;;;;;4921077;29;20056;-62
2023/04/22 05:22:10;;;;;;;0.32;0.20;;;;;;;;;;4924853;29;20130;-60
2023/04/22 05:24:38;;;;;;;1.10;0.52;;;;;;;;;;4918960;29;20509;-64
2023/04/22 05:27:08;;;;;;;0.60;0.60;;;;;;;;;;4921523;28;20060;-58
2023/04/22 05:29:37;;;;;;;1.75;0.65;;;;;;;;;;4920384;29;20075;-63
2023/04/22 05:32:07;;;;;;;0.40;0.40;;;;;;;;;;4922277;29;20058;-67
2023/04/22 05:34:36;;;;;;;2.15;0.73;;;;;;;;;;4921956;29;20601;-61
2023/04/22 05:37:04;;;;;;;0.98;0.60;;;;;;;;;;4917010;28;20060;-58
2023/04/22 05:39:33;;;;;;;1.38;0.43;;;;;;;;;;4921656;29;20048;-59
2023/04/22 05:42:01;;;;;;;13.63;0.75;;;;;;;;;;4923519;29;20134;-59
2023/04/22 05:44:31;;;;;;;1.13;0.30;;;;;;;;;;4923420;29;20039;-60
2023/04/22 05:46:59;;;;;;;1.25;0.52;;;;;;;;;;4922303;28;20552;-61
2023/04/22 05:49:28;;;;;;;0.93;0.73;;;;;;;;;;4922999;29;20135;-58
2023/04/22 05:51:56;;;;;;;0.50;0.50;;;;;;;;;;4920019;29;20055;-61
2023/04/22 05:54:24;;;;;;;1.30;0.50;;;;;;;;;;4919781;29;20450;-62
2023/04/22 05:56:53;;;;;;;0.65;0.63;;;;;;;;;;4917746;29;20154;-60
2023/04/22 05:59:21;;;;;;;0.57;0.45;;;;;;;;;;4919469;29;20056;-59
2023/04/22 06:01:51;;;;;;;0.57;0.55;;;;;;;;;;4917579;29;20052;-66
2023/04/22 06:04:19;;;;;;;0.77;0.63;;;;;;;;;;4919110;29;20147;-67
2023/04/22 06:06:48;;;;;;;0.45;0.45;;;;;;;;;;4917031;29;20437;-61
2023/04/22 06:09:17;;;;;;;1.08;0.65;;;;;;;;;;4918593;29;20565;-59
2023/04/22 06:11:45;;;;;;;1.80;0.98;;;;;;;;;;4916890;29;20059;-61
2023/04/22 06:14:13;;;;;;;0.40;0.40;;;;;;;;;;4921325;29;20414;-58
2023/04/22 06:16:42;;;;;;;0.55;0.50;;;;;;;;;;4920332;28;20054;-58
2023/04/22 06:19:11;;;;;;;0.40;0.40;;;;;;;;;;4923676;29;20083;-59
2023/04/22 06:21:41;;;;;;;0.55;0.55;;;;;;;;;;4923317;29;20564;-59
2023/04/22 06:24:09;;;;;;;0.82;0.50;;;;;;;;;;4917396;29;20048;-62
2023/04/22 06:26:38;;;;;;;1.17;0.65;;;;;;;;;;4918821;28;20051;-60
2023/04/22 06:29:06;;;;;;;0.95;0.32;;;;;;;;;;4920242;29;20059;-66
2023/04/22 06:31:35;;;;;;;0.98;0.50;;;;;;;;;;4926820;29;20062;-62
2023/04/22 06:34:04;;;;;;;0.70;0.45;;;;;;;;;;4923388;29;20413;-63
2023/04/22 06:36:36;;;;;;;0.30;0.30;;;;;;;;;;4924613;28;20421;-62
2023/04/22 06:39:05;;;;;;;1.40;0.70;;;;;;;;;;4922664;29;20416;-65
2023/04/22 06:41:33;;;;;;;1.23;0.70;;;;;;;;;;4923968;29;20513;-60
2023/04/22 06:44:02;;;;;;;1.15;0.50;;;;;;;;;;4926002;29;20052;-60
2023/04/22 06:46:30;;;;;;;0.63;0.50;;;;;;;;;;4923571;29;20705;-61
2023/04/22 06:48:58;;;;;;;0.25;0.25;;;;;;;;;;4926121;29;20051;-70
2023/04/22 06:51:27;;;;;;;1.00;0.77;;;;;;;;;;4922851;29;20051;-59
2023/04/22 06:53:57;;;;;;;1.17;0.30;;;;;;;;;;4923261;29;20059;-60
2023/04/22 06:56:25;;;;;;;0.65;0.40;;;;;;;;;;4927848;28;20052;-63
2023/04/22 06:58:54;;;;;;;1.10;0.40;;;;;;;;;;4918797;29;20452;-61
2023/04/22 07:01:22;;;;;;;2.60;0.45;;;;;;;;;;4923294;29;20058;-61
2023/04/22 07:03:50;;;;;;;14.40;3.65;;;;;;;;;;4921952;29;20064;-66
2023/04/22 07:06:19;;;;;;;0.60;0.30;;;;;;;;;;4921243;29;20474;-72
2023/04/22 07:08:47;;;;;;;0.77;0.50;;;;;;;;;;4922285;29;20058;-63
2023/04/22 07:11:17;;;;;;;2.10;0.43;;;;;;;;;;4923719;29;20385;-60
2023/04/22 07:13:45;;;;;;;0.85;0.40;;;;;;;;;;4925700;29;20079;-61
2023/04/22 07:16:14;;;;;;;0.65;0.38;;;;;;;;;;4924472;28;20494;-60
2023/04/22 07:18:42;;;;;;;0.47;0.40;;;;;;;;;;4921826;29;20516;-59
2023/04/22 07:21:10;;;;;;;0.98;0.40;;;;;;;;;;4925812;29;20048;-62
2023/04/22 07:23:39;;;;;;;3.20;0.60;;;;;;;;;;4924643;29;20146;-65
2023/04/22 07:26:07;;;;;;;0.47;0.45;;;;;;;;;;4925471;28;20052;-63
2023/04/22 07:28:37;;;;;;;1.08;0.65;;;;;;;;;;4923942;29;20051;-61
2023/04/22 07:31:05;;;;;;;0.30;0.30;;;;;;;;;;4924030;29;20054;-60
2023/04/22 07:33:33;;;;;;;0.88;0.43;;;;;;;;;;4922427;29;20422;-63
2023/04/22 07:36:02;;;;;;;1.27;0.50;;;;;;;;;;4925315;28;20048;-65
2023/04/22 07:38:30;;;;;;;0.60;0.57;;;;;;;;;;4923057;29;20047;-61
2023/04/22 07:40:59;;;;;;;1.27;0.50;;;;;;;;;;4924935;29;20056;-60
2023/04/22 07:43:27;;;;;;;0.28;0.28;;;;;;;;;;4925032;29;20066;-60
2023/04/22 07:45:57;;;;;;;0.55;0.38;;;;;;;;;;4927644;28;20151;-65
2023/04/22 07:48:25;;;;;;;1.30;0.60;;;;;;;;;;4926291;29;20158;-63
2023/04/22 07:50:53;;;;;;;0.90;0.70;;;;;;;;;;4927018;29;20068;-62
2023/04/22 07:53:22;;;;;;;1.25;0.60;;;;;;;;;;4926823;29;20560;-60
2023/04/22 07:55:50;;;;;;;0.50;0.40;;;;;;;;;;4926350;29;20138;-60
2023/04/22 07:58:19;;;;;;;0.63;0.30;;;;;;;;;;4925194;29;20047;-67
2023/04/22 08:00:47;;;;;;;0.55;0.45;;;;;;;;;;4928449;29;20058;-61
2023/04/22 08:03:17;;;;;;;0.30;0.30;;;;;;;;;;4928828;29;20143;-66
2023/04/22 08:05:46;;;;;;;0.60;0.47;;;;;;;;;;4925844;28;20698;-60
2023/04/22 08:08:14;;;;;;;0.88;0.45;;;;;;;;;;4923002;29;20233;-64
2023/04/22 08:10:43;;;;;;;0.68;0.38;;;;;;;;;;4925485;29;20059;-60
2023/04/22 08:13:11;;;;;;;0.30;0.30;;;;;;;;;;4927708;29;20125;-66
2023/04/22 08:15:39;;;;;;;1.05;0.43;;;;;;;;;;4925632;28;20051;-65
2023/04/22 08:18:10;;;;;;;0.60;0.40;;;;;;;;;;4927615;29;20043;-60
2023/04/22 08:20:40;;;;;;;0.25;0.25;;;;;;;;;;4928916;29;20052;-62
2023/04/22 08:23:09;;;;;;;0.32;0.32;;;;;;;;;;4928631;29;20048;-60
2023/04/22 08:25:38;;;;;;;0.43;0.30;;;;;;;;;;4925595;28;20060;-66
2023/04/22 08:28:06;;;;;;;0.55;0.45;;;;;;;;;;4926486;29;20075;-65
2023/04/22 08:30:34;;;;;;;0.38;0.30;;;;;;;;;;4931640;29;20059;-60
2023/04/22 08:33:03;;;;;;;2.00;0.38;;;;;;;;;;4927317;29;20057;-65
2023/04/22 08:35:31;;;;;;;0.88;0.70;;;;;;;;;;4924422;28;20048;-60
2023/04/22 08:38:01;;;;;;;1.05;0.60;;;;;;;;;;4925519;29;20063;-69
2023/04/22 08:40:30;;;;;;;0.80;0.30;;;;;;;;;;4929045;29;20056;-62
2023/04/22 08:42:58;;;;;;;0.70;0.52;;;;;;;;;;4929977;29;20111;-60
2023/04/22 08:45:27;;;;;;;0.52;0.38;;;;;;;;;;4924557;29;20051;-69
2023/04/22 08:47:55;;;;;;;1.42;0.40;;;;;;;;;;4924217;29;20051;-62
2023/04/22 08:50:25;;;;;;;0.30;0.20;;;;;;;;;;4928579;29;20083;-71
2023/04/22 08:52:53;;;;;;;0.30;0.30;;;;;;;;;;4924993;29;20052;-61
2023/04/22 08:55:23;;;;;;;0.20;0.20;;;;;;;;;;4927418;28;20382;-61
2023/04/22 08:57:51;;;;;;;1.33;0.43;;;;;;;;;;4926298;29;20055;-67
2023/04/22 09:00:20;;;;;;;0.93;0.40;;;;;;;;;;4927344;29;20047;-65
2023/04/22 09:02:49;;;;;;;1.48;0.77;;;;;;;;;;4926415;29;20059;-64
2023/04/22 09:05:18;;;;;;;2.72;0.73;;;;;;;;;;4924411;28;20190;-63
2023/04/22 09:07:47;;;;;;;0.47;0.30;;;;;;;;;;4921690;29;20861;-62
2023/04/22 09:10:16;;;;;;;2.50;1.25;;;;;;;;;;4923069;29;20051;-61
2023/04/22 09:12:47;;;;;;;1.05;0.50;;;;;;;;;;4923826;29;20056;-65
2023/04/22 09:15:15;;;;;;;0.63;0.30;;;;;;;;;;4926762;28;20067;-66
2023/04/22 09:17:45;;;;;;;1.88;0.60;;;;;;;;;;4926914;29;20047;-62
2023/04/22 09:20:16;;;;;;;2.05;0.40;;;;;;;;;;4924857;29;20355;-66
2023/04/22 09:22:45;;;;;;;0.35;0.32;;;;;;;;;;4927335;29;20062;-62
2023/04/22 09:25:17;;;;;;;1.10;0.70;;;;;;;;;;4928448;29;20050;-61
2023/04/22 09:27:50;;;;;;;2.72;0.93;;;;;;;;;;4904143;29;20075;-61
2023/04/22 09:30:19;;;;;;;1.23;0.50;;;;;;;;;;4921737;29;20047;-66
2023/04/22 09:32:54;;;;;;;0.40;0.40;;;;;;;;;;4926067;29;20143;-70
2023/04/22 09:35:29;;;;;;;1.27;0.88;;;;;;;;;;4928287;28;20051;-63
2023/04/22 09:37:58;;;;;;;;;;;;;;;;;;4920464;29;20056;-60
2023/04/22 09:40:26;;;;;;;7.22;0.82;;;;;;;;;;4921711;29;19931;-60
2023/04/22 09:42:57;;;;;;;1.33;0.50;;;;;;;;;;4923399;29;20063;-67
2023/04/22 09:45:26;;;;;;;0.77;0.55;;;;;;;;;;4922462;29;20188;-63
2023/04/22 09:47:55;;;;;;;1.45;0.30;;;;;;;;;;4922108;29;20110;-62
2023/04/22 09:50:25;;;;;;;0.40;0.40;;;;;;;;;;4924341;29;20076;-65
2023/04/22 09:52:57;;;;;;;0.50;0.50;;;;;;;;;;4922521;29;20146;-60
2023/04/22 09:55:26;;;;;;;0.80;0.47;;;;;;;;;;4925178;28;20041;-61
2023/04/22 09:57:57;;;;;;;0.20;0.20;;;;;;;;;;4923960;29;20062;-63
2023/04/22 10:00:28;;;;;;;0.98;0.57;;;;;;;;;;4923698;29;20068;-61
2023/04/22 10:02:56;;;;;;;1.20;0.68;;;;;;;;;;4922617;29;20442;-61
2023/04/22 10:05:25;;;;;;;2.22;0.70;;;;;;;;;;4925022;29;20557;-72
2023/04/22 10:07:54;;;;;;;0.70;0.45;;;;;;;;;;4918714;29;20181;-62
2023/04/22 10:10:23;;;;;;;0.35;0.35;;;;;;;;;;4924749;29;20054;-67
2023/04/22 10:12:52;;;;;;;1.90;0.60;;;;;;;;;;4922644;29;20107;-61
2023/04/22 10:15:22;;;;;;;0.68;0.43;;;;;;;;;;4924578;28;20146;-63
2023/04/22 10:17:55;;;;;;;0.40;0.30;;;;;;;;;;4924932;29;20106;-61
2023/04/22 10:20:24;;;;;;;0.85;0.50;;;;;;;;;;4926411;29;20052;-63
2023/04/22 10:22:54;;;;;;;0.30;0.25;;;;;;;;;;4924888;29;20056;-63
2023/04/22 10:25:23;;;;;;;0.47;0.35;;;;;;;;;;4917952;28;20056;-61
2023/04/22 10:27:55;;;;;;;2.35;0.80;;;;;;;;;;4921323;29;20047;-61
2023/04/22 10:30:32;;;;;;;0.55;0.47;;;;;;;;;;4921858;29;20576;-66
2023/04/22 10:33:15;;;;;;;0.60;0.43;;;;;;;;;;4923722;29;20055;-61
2023/04/22 10:36:03;;;;;;;0.47;0.35;;;;;;;;;;4922178;28;20051;-62
2023/04/22 10:38:34;;;;;;;0.73;0.45;;;;;;;;;;4920864;29;20051;-60
2023/04/22 10:41:03;;;;;;;1.95;0.43;;;;;;;;;;4920116;29;20051;-63
2023/04/22 10:43:50;;;;;;;0.73;0.50;;;;;;;;;;4923753;29;20158;-63
2023/04/22 10:46:38;;;;;;;0.50;0.30;;;;;;;;;;4917913;28;20065;-68
2023/04/22 10:49:11;;;;;;;0.43;0.30;;;;;;;;;;4922964;29;20468;-63
2023/04/22 10:51:39;;;;;;;0.30;0.30;;;;;;;;;;4918833;29;20055;-64
2023/04/22 10:54:09;;;;;;;0.30;0.30;;;;;;;;;;4919244;29;20047;-66
2023/04/22 10:57:00;;;;;;;0.50;0.40;;;;;;;;;;4924939;29;20420;-62
2023/04/22 10:59:29;;;;;;;0.28;0.28;;;;;;;;;;4921451;29;20055;-63
2023/04/22 11:02:01;;;;;;;0.40;0.30;;;;;;;;;;4915146;29;20064;-62
2023/04/22 11:04:31;;;;;;;0.38;0.38;;;;;;;;;;4923893;29;20106;-65
2023/04/22 11:07:15;;;;;;;1.00;0.40;;;;;;;;;;4920149;29;20127;-63
2023/04/22 11:09:45;;;;;;;0.45;0.40;;;;;;;;;;4921372;29;20507;-67
2023/04/22 11:12:46;;;;;;;0.40;0.30;;;;;;;;;;4926423;29;20055;-61
2023/04/22 11:15:16;;;;;;;0.40;0.40;;;;;;;;;;4847887;29;20058;-61
2023/04/22 11:17:45;;;;;;;0.50;0.30;;;;;;;;;;4846646;29;20685;-63
2023/04/22 11:20:16;;;;;;;0.75;0.43;;;;;;;;;;4885964;29;20040;-62
2023/04/22 11:22:45;;;;;;;2.05;0.73;;;;;;;;;;4918185;29;20052;-65
2023/04/22 11:25:14;;;;;;;0.40;0.30;;;;;;;;;;4925258;29;20056;-68
2023/04/22 11:27:43;;;;;;;0.30;0.30;;;;;;;;;;4925935;29;20353;-66
2023/04/22 11:30:13;;;;;;;0.60;0.40;;;;;;;;;;4924063;29;20144;-64
2023/04/22 11:32:43;;;;;;;0.30;0.30;;;;;;;;;;4926823;29;20055;-65
2023/04/22 11:35:12;;;;;;;0.20;0.20;;;;;;;;;;4926912;29;20052;-63
2023/04/22 11:37:43;;;;;;;0.30;0.30;;;;;;;;;;4922260;29;20461;-63
2023/04/22 11:40:13;;;;;;;0.35;0.35;;;;;;;;;;4926984;29;20634;-61
2023/04/22 11:42:58;;;;;;;0.65;0.20;;;;;;;;;;4925905;29;20046;-61
2023/04/22 11:45:26;;;;;;;0.43;0.30;;;;;;;;;;4926840;28;20521;-65
2023/04/22 11:47:55;;;;;;;0.20;0.20;;;;;;;;;;4925975;29;20051;-68
2023/04/22 11:50:25;;;;;;;0.20;0.20;;;;;;;;;;4926979;29;20044;-63
2023/04/22 11:52:56;;;;;;;0.30;0.30;;;;;;;;;;4924818;29;20063;-68
2023/04/22 11:55:26;;;;;;;0.30;0.20;;;;;;;;;;4926963;28;20151;-67
2023/04/22 11:57:56;;;;;;;0.40;0.40;;;;;;;;;;4926556;29;20044;-64
2023/04/22 12:00:25;;;;;;;0.20;0.20;;;;;;;;;;4923464;29;20063;-63
2023/04/22 12:02:57;;;;;;;0.75;0.32;;;;;;;;;;4927806;29;20154;-63
2023/04/22 12:05:36;;;;;;;1.00;0.50;;;;;;;;;;4923343;28;20298;-62
2023/04/22 12:08:07;;;;;;;0.35;0.35;;;;;;;;;;4923486;29;20059;-63
2023/04/22 12:10:40;;;;;;;3.03;0.70;;;;;;;;;;4924932;29;20069;-63
2023/04/22 12:13:09;;;;;;;0.32;0.20;;;;;;;;;;4923726;29;20849;-61
2023/04/22 12:15:38;;;;;;;0.95;0.35;;;;;;;;;;4925234;28;20143;-62
2023/04/22 12:18:07;;;;;;;0.28;0.22;;;;;;;;;;4927950;29;20055;-62
2023/04/22 12:20:36;;;;;;;0.95;0.40;;;;;;;;;;4922682;29;20063;-62
2023/04/22 12:23:06;;;;;;;0.22;0.22;;;;;;;;;;4919050;29;20346;-62
2023/04/22 12:25:34;;;;;;;0.55;0.30;;;;;;;;;;4918306;29;20056;-61
2023/04/22 12:28:02;;;;;;;0.45;0.38;;;;;;;;;;4923142;28;20073;-61
2023/04/22 12:30:31;;;;;;;0.25;0.25;;;;;;;;;;4921782;29;20548;-60
2023/04/22 12:32:59;;;;;;;0.57;0.30;;;;;;;;;;4924180;29;20043;-65
2023/04/22 12:35:28;;;;;;;0.40;0.40;;;;;;;;;;4922844;29;20066;-63
2023/04/22 12:37:56;;;;;;;0.50;0.20;;;;;;;;;;4919165;29;20055;-63
2023/04/22 12:40:26;;;;;;;0.20;0.20;;;;;;;;;;4923399;29;20048;-62
2023/04/22 12:42:54;;;;;;;0.95;0.73;;;;;;;;;;4920850;29;20053;-67
2023/04/22 12:45:23;;;;;;;0.35;0.30;;;;;;;;;;4925716;28;20040;-63
2023/04/22 12:47:54;;;;;;;0.47;0.30;;;;;;;;;;4922222;29;20062;-62
2023/04/22 12:50:22;;;;;;;0.28;0.28;;;;;;;;;;4924531;29;20055;-65
2023/04/22 12:52:51;;;;;;;0.45;0.30;;;;;;;;;;4922600;29;20511;-65
2023/04/22 12:55:20;;;;;;;0.68;0.50;;;;;;;;;;4921708;28;20130;-65
2023/04/22 12:57:50;;;;;;;1.45;0.47;;;;;;;;;;4920527;29;20043;-65
2023/04/22 13:00:19;;;;;;;2.40;0.75;;;;;;;;;;4921766;29;20051;-66
2023/04/22 13:02:48;;;;;;;3.97;0.52;;;;;;;;;;4916873;29;20055;-65
2023/04/22 13:05:20;;;;;;;0.55;0.38;;;;;;;;;;4922200;28;20062;-68
2023/04/22 13:07:49;;;;;;;0.45;0.40;;;;;;;;;;4918737;29;20512;-67
2023/04/22 13:10:47;;;;;;;0.23;0.20;;;;;;;;;;4925698;29;20402;-64
2023/04/22 13:13:19;;;;;;;2.50;0.35;;;;;;;;;;4904464;29;20315;-65
2023/04/22 13:15:51;;;;;;;0.20;0.20;;;;;;;;;;4923576;28;20473;-66
2023/04/22 13:18:21;;;;;;;0.30;0.30;;;;;;;;;;4921350;29;20051;-63
2023/04/22 13:20:50;;;;;;;0.35;0.30;;;;;;;;;;4923222;29;20052;-74
2023/04/22 13:23:20;;;;;;;0.38;0.28;;;;;;;;;;4922821;29;20044;-64
2023/04/22 13:25:49;;;;;;;0.43;0.30;;;;;;;;;;4923955;29;20155;-64
2023/04/22 13:28:17;;;;;;;0.60;0.38;;;;;;;;;;4918378;29;20048;-65
2023/04/22 13:30:54;;;;;;;0.52;0.40;;;;;;;;;;4921614;29;20130;-63
2023/04/22 13:33:32;;;;;;;0.43;0.35;;;;;;;;;;4918753;29;20044;-65
2023/04/22 13:36:01;;;;;;;0.35;0.30;;;;;;;;;;4922975;28;20190;-64
2023/04/22 13:38:29;;;;;;;0.70;0.30;;;;;;;;;;4918781;29;20160;-63
2023/04/22 13:40:58;;;;;;;0.43;0.43;;;;;;;;;;4921183;29;20048;-63
2023/04/22 13:43:29;;;;;;;0.65;0.20;;;;;;;;;;4919581;29;20119;-63
2023/04/22 13:45:59;;;;;;;1.65;0.50;;;;;;;;;;4923226;28;20513;-69
2023/04/22 13:48:28;;;;;;;0.28;0.28;;;;;;;;;;4922027;29;20070;-65
2023/04/22 13:50:57;;;;;;;0.10;0.10;;;;;;;;;;4921816;29;20131;-65
2023/04/22 13:53:25;;;;;;;0.57;0.30;;;;;;;;;;4922330;29;20565;-67
2023/04/22 13:55:54;;;;;;;0.35;0.20;;;;;;;;;;4922842;28;20047;-68
2023/04/22 13:58:22;;;;;;;0.25;0.25;;;;;;;;;;4918799;29;20046;-68
2023/04/22 14:00:50;;;;;;;0.90;0.50;;;;;;;;;;4921284;29;20594;-65
2023/04/22 14:03:20;;;;;;;0.30;0.30;;;;;;;;;;4921218;29;20048;-68
2023/04/22 14:05:49;;;;;;;0.50;0.40;;;;;;;;;;4920701;28;20166;-65
2023/04/22 14:08:17;;;;;;;0.43;0.30;;;;;;;;;;4922309;29;20047;-63
2023/04/22 14:10:46;;;;;;;1.30;0.35;;;;;;;;;;4923663;29;20111;-74
2023/04/22 14:13:14;;;;;;;0.40;0.40;;;;;;;;;;4918420;29;20051;-70
2023/04/22 14:15:50;;;;;;;0.55;0.30;;;;;;;;;;4918958;28;20051;-64
2023/04/22 14:18:18;;;;;;;0.50;0.40;;;;;;;;;;4922207;29;20059;-64
2023/04/22 14:20:48;;;;;;;1.60;0.85;;;;;;;;;;4920923;29;20050;-64
2023/04/22 14:23:17;;;;;;;0.55;0.50;;;;;;;;;;4921056;28;20152;-66
2023/04/22 14:25:45;;;;;;;1.40;0.60;;;;;;;;;;4920687;29;20531;-68
2023/04/22 14:28:14;;;;;;;0.40;0.40;;;;;;;;;;4922720;29;20477;-66
2023/04/22 14:30:43;;;;;;;2.20;0.32;;;;;;;;;;4921397;29;20056;-65
2023/04/22 14:33:11;;;;;;;0.40;0.30;;;;;;;;;;4921167;29;20079;-64
2023/04/22 14:35:39;;;;;;;0.57;0.40;;;;;;;;;;4920313;29;20394;-65
2023/04/22 14:38:10;;;;;;;0.70;0.50;;;;;;;;;;4920500;29;20047;-71
2023/04/22 14:40:38;;;;;;;0.35;0.30;;;;;;;;;;4923174;29;20071;-64
2023/04/22 14:43:07;;;;;;;0.80;0.43;;;;;;;;;;4920274;29;20055;-66
2023/04/22 14:45:36;;;;;;;0.75;0.30;;;;;;;;;;4919385;28;20428;-71
2023/04/22 14:48:04;;;;;;;1.30;0.98;;;;;;;;;;4917410;29;20493;-65
2023/04/22 14:50:33;;;;;;;0.60;0.30;;;;;;;;;;4922838;29;20039;-65
2023/04/22 14:53:01;;;;;;;0.63;0.40;;;;;;;;;;4919831;29;21159;-64
2023/04/22 14:55:31;;;;;;;0.40;0.30;;;;;;;;;;4919649;28;20187;-66
2023/04/22 14:57:59;;;;;;;0.32;0.32;;;;;;;;;;4925623;29;20055;-64